GP di Francia

MXGP 2021. GP di Francia: successo di Jeffrey Herlings, quinto Cairoli

- Il pilota olandese della Ktm coglie la 95esima vittoria in carriera e si riappropria della tabella rossa, strappata a Gajser, terzo in Francia e ora anche in campionato, passato anche dall'idolo di casa Febvre, secondo. Tony Cairoli non va oltre il quinto posto. In MX2 nono trionfo stagionale per Tom Vialle su Ktm. Sul podio anche Guadagnini e Renaux, leader della categoria inferiore

La dodicesima tappa del Mondiale Motocross 2021 si è disputata in Francia, sul tracciato di Lacapelle Marival.

Il GP di Francia vede l'ennesimo cambio al comando della classifica generale del Mondiale MXGP 2021.

Jeffrey Herlings espugna infatti la tappa di Lacapelle Marival con un secondo e un primo posto nelle due manche. L'olandese centra la 95esima vittoria in carriera e si riporta in testa al campionato.

La pista di casa porta bene a Romain Febvre, secondo di tappa ma anche, da oggi, nella generale. Il pilota della Yamaha supera il campione in carica Tim Gajser, terzo al traguardo.

Dunque, Herlings è in testa con 460 punti. Alle sue spalle Febvre a 454 e Gajser a 450 lunghezze.

GP da dimenticare per Jorge Prado e Antonio Cairoli, rispettivamente quarto (398) e quinto (387) nel Mondiale, ma solo 14esimo e quinto in Francia.

Prova positiva per i colori italiani per il nono e il decimo posto di Alberto Forato e Alessandro Lupino.

GP di Francia - MXGP - La classifica della prima manche (primi 20)

Pos Nr Rider Nat. Fed. Bike Time laps Diff. First Diff. Prev. Bestlaptime in lap Speed
1 3 Febvre, Romain FRA FFM Kawasaki 34:21.708 19 0:00.000 0:00.000 1:47.827 11 54.087
2 84 Herlings, Jeffrey NED KNMV KTM 34:22.463 19 0:00.755 0:00.755 1:47.293 18 54.356
3 91 Seewer, Jeremy SUI FMS Yamaha 34:59.317 19 0:37.609 0:36.854 1:48.741 3 53.632
4 41 Jonass, Pauls LAT LAMSF GASGAS 35:01.500 19 0:39.792 0:02.183 1:48.665 3 53.67
5 222 Cairoli, Antonio ITA FMI KTM 35:02.722 19 0:41.014 0:01.222 1:50.146 17 52.948
6 243 Gajser, Tim SLO AMZS Honda 35:06.429 19 0:44.721 0:03.707 1:49.477 15 53.271
7 4 Tonus, Arnaud SUI FMS Yamaha 35:24.495 19 1:02.787 0:18.066 1:50.180 7 52.932
8 19 Olsen, Thomas Kjer DEN DMU Husqvarna 35:30.081 19 1:08.373 0:05.586 1:50.141 5 52.95
9 77 Lupino, Alessandro ITA FMI KTM 35:47.281 19 1:25.573 0:17.200 1:50.517 6 52.77
10 303 Forato, Alberto ITA FMI GASGAS 35:52.133 19 1:30.425 0:04.852 1:50.226 7 52.909
11 7 Jasikonis, Arminas LTU LMSF Husqvarna 35:57.369 19 1:35.661 0:05.236 1:50.798 7 52.636
12 16 Paturel, Benoit FRA FFM Honda 35:59.256 19 1:37.548 0:01.887 1:51.868 7 52.133
13 259 Coldenhoff, Glenn NED KNMV Yamaha 36:00.312 19 1:38.604 0:01.056 1:51.845 12 52.144
14 18 Brylyakov, Vsevolod MFR MFR Honda 36:03.854 19 1:42.146 0:03.542 1:51.919 6 52.109
15 32 Van doninck, Brent BEL FMB Yamaha 36:12.525 19 1:50.817 0:08.671 1:51.957 13 52.091
16 61 Prado, Jorge ESP RFME KTM 34:24.325 18 1 lap 1 lap 1:53.273 9 51.486
17 326 Gilbert, Josh GBR ACU Husqvarna 34:25.432 18 1 lap 0:01.107 1:51.371 4 52.366
18 21 Desprey, Maxime FRA FFM Yamaha 34:27.237 18 1 lap 0:01.805 1:52.329 9 51.919
19 919 Watson, Ben GBR ACU Yamaha 34:28.783 18 1 lap 0:01.546 1:52.870 11 51.67
20 189 Bogers, Brian NED KNMV GASGAS 34:35.560 18 1 lap 0:06.777 1:52.329 2 51.919

GP di Francia - MXGP - La classifica della seconda manche (primi 20)

Pos Nr Rider Nat. Fed. Bike Time laps Diff. First Diff. Prev. Bestlaptime in lap Speed
1 84 Herlings, Jeffrey NED KNMV KTM 34:32.068 19 0:00.000 0:00.000 1:47.161 3 54.423
2 3 Febvre, Romain FRA FFM Kawasaki 34:37.373 19 0:05.305 0:05.305 1:47.809 5 54.096
3 243 Gajser, Tim SLO AMZS Honda 34:53.233 19 0:21.165 0:15.860 1:48.953 7 53.528
4 222 Cairoli, Antonio ITA FMI KTM 35:00.267 19 0:28.199 0:07.034 1:48.831 4 53.588
5 41 Jonass, Pauls LAT LAMSF GASGAS 35:01.521 19 0:29.453 0:01.254 1:49.110 5 53.451
6 91 Seewer, Jeremy SUI FMS Yamaha 35:02.213 19 0:30.145 0:00.692 1:49.549 3 53.236
7 10 Vlaanderen, Calvin NED KNMV Yamaha 35:22.741 19 0:50.673 0:20.528 1:50.481 7 52.787
8 259 Coldenhoff, Glenn NED KNMV Yamaha 35:28.002 19 0:55.934 0:05.261 1:50.903 10 52.586
9 89 Van Horebeek, Jeremy BEL FMB Beta 35:46.759 19 1:14.691 0:18.757 1:50.687 7 52.689
10 19 Olsen, Thomas Kjer DEN DMU Husqvarna 35:53.239 19 1:21.171 0:06.480 1:51.819 10 52.156
11 303 Forato, Alberto ITA FMI GASGAS 35:58.869 19 1:26.801 0:05.630 1:51.574 6 52.27
12 61 Prado, Jorge ESP RFME KTM 36:07.696 19 1:35.628 0:08.827 1:53.078 7 51.575
13 77 Lupino, Alessandro ITA FMI KTM 36:08.433 19 1:36.365 0:00.737 1:51.154 5 52.468
14 189 Bogers, Brian NED KNMV GASGAS 36:09.709 19 1:37.641 0:01.276 1:52.809 7 51.698
15 16 Paturel, Benoit FRA FFM Honda 36:10.724 19 1:38.656 0:01.015 1:52.945 13 51.636
16 7 Jasikonis, Arminas LTU LMSF Husqvarna 36:11.324 19 1:39.256 0:00.600 1:52.626 11 51.782
17 18 Brylyakov, Vsevolod MFR MFR Honda 36:14.017 19 1:41.949 0:02.693 1:53.104 16 51.563
18 29 Jacobi, Henry GER DMSB Honda 34:33.992 18 1 lap 1 lap 1:52.996 14 51.612
19 326 Gilbert, Josh GBR ACU Husqvarna 34:38.623 18 1 lap 0:04.631 1:53.414 11 51.422
20 919 Watson, Ben GBR ACU Yamaha 34:41.458 18 1 lap 0:02.835 1:53.378 8 51.439

GP di Francia - MXGP - La classifica del GP (primi 20)

Pos Nr Rider Nat. Fed. Bike Race 1 Race 2 Total
1 84 Herlings, Jeffrey NED KNMV KTM 22 25 47
2 3 Febvre, Romain FRA FFM KAW 25 22 47
3 243 Gajser, Tim SLO AMZS HON 15 20 35
4 91 Seewer, Jeremy SUI FMS YAM 20 15 35
5 222 Cairoli, Antonio ITA FMI KTM 16 18 34
6 41 Jonass, Pauls LAT LAMSF GAS 18 16 34
7 19 Olsen, Thomas Kjer DEN DMU HUS 13 11 24
8 259 Coldenhoff, Glenn NED KNMV YAM 8 13 21
9 303 Forato, Alberto ITA FMI GAS 11 10 21
10 77 Lupino, Alessandro ITA FMI KTM 12 8 20
11 16 Paturel, Benoit FRA FFM HON 9 6 15
12 7 Jasikonis, Arminas LTU LMSF HUS 10 5 15
13 10 Vlaanderen, Calvin NED KNMV YAM 0 14 14
14 61 Prado, Jorge ESP RFME KTM 5 9 14
15 4 Tonus, Arnaud SUI FMS YAM 14 0 14
16 89 Van Horebeek, Jeremy BEL FMB BET 0 12 12
17 18 Brylyakov, Vsevolod MFR MFR HON 7 4 11
18 189 Bogers, Brian NED KNMV GAS 1 7 8
19 326 Gilbert, Josh GBR ACU HUS 4 2 6
20 32 Van doninck, Brent BEL FMB YAM 6 0 6

MX2

In MX2 Tom Vialle ottiene la nona affermazione 2021. Sul tracciato casalingo, il francese della Ktm non lascia spazio agli avversari, conquistando sia Gara1, sia Gara2.

Al secondo posto Mattia Guadagnini, seguito da un altro francese, Maxime Renaux.

Nel Mondiale Renaux sale a 488 punti, davanti a Jago Geerts (397), quinto in Francia, e a Guadagnini (393), insidiati entrambi dalla straordinaria seconda parte di stagione di Vialle, quarto in rimonta a quota 372 punti.

Da segnalare infine il 12esimo posto di Andrea Adamo e il 18esimo di Gianluca Facchetti.

Prossima prova del calendario iridato, domenica 17 ottobre in Spagna, a Intu Xanadù - Arroyomolinos.

GP di Francia - MX2 - La classifica della prima manche (primi 20)

Pos Nr Rider Nat. Fed. Bike Time laps Diff. First Diff. Prev. Bestlaptime in lap Speed
1 28 Vialle, Tom FRA FFM KTM 34:55.130 19 0:00.000 0:00.000 1:48.649 3 53.677
2 101 Guadagnini, Mattia ITA FMI KTM 35:00.015 19 0:04.885 0:04.885 1:49.138 10 53.437
3 14 Beaton, Jed AUS MA Husqvarna 35:02.499 19 0:07.369 0:02.484 1:49.780 8 53.124
4 959 Renaux, Maxime FRA FFM Yamaha 35:05.963 19 0:10.833 0:03.464 1:49.927 9 53.053
5 93 Geerts, Jago BEL FMB Yamaha 35:06.973 19 0:11.843 0:01.010 1:49.190 4 53.411
6 198 Benistant, Thibault FRA FFM Yamaha 35:07.706 19 0:12.576 0:00.733 1:49.850 15 53.091
7 711 Hofer, Rene AUT AMF KTM 35:13.437 19 0:18.307 0:05.731 1:49.727 8 53.15
8 20 Todd, Wilson AUS ACU Kawasaki 35:22.336 19 0:27.206 0:08.899 1:50.476 9 52.79
9 39 Van De Moosdijk, Roan NED KNMV Kawasaki 35:27.709 19 0:32.579 0:05.373 1:50.411 5 52.821
10 118 Rubini, Stephen FRA FFM Honda 35:30.213 19 0:35.083 0:02.504 1:50.807 8 52.632
11 517 Gifting, Isak SWE SVEMO GASGAS 35:39.779 19 0:44.649 0:09.566 1:51.259 15 52.418
12 11 Haarup, Mikkel DEN DMU Kawasaki 35:42.824 19 0:47.694 0:03.045 1:50.854 15 52.61
13 80 Adamo, Andrea ITA FMI GASGAS 35:58.972 19 1:03.842 0:16.148 1:51.841 6 52.145
14 403 Boegh Damm, Bastian DEN DMU KTM 36:02.197 19 1:07.067 0:03.225 1:51.299 7 52.399
15 94 Facchetti, Gianluca ITA FMI KTM 36:07.534 19 1:12.404 0:05.337 1:52.216 4 51.971
16 57 Goupillon, Pierre FRA FFM KTM 36:08.627 19 1:13.497 0:01.093 1:52.098 7 52.026
17 516 Laengenfelder, Simon GER DMSB GASGAS 36:11.197 19 1:16.067 0:02.570 1:52.531 5 51.826
18 253 Pancar, Jan SLO AMZS KTM 36:12.175 19 1:17.045 0:00.978 1:53.282 9 51.482
19 74 de Wolf, Kay NED KNMV Husqvarna 36:12.938 19 1:17.808 0:00.763 1:51.995 7 52.074
20 313 Polak, Petr CZE ACCR Yamaha 36:15.665 19 1:20.535 0:02.727 1:52.331 8 51.918

GP di Francia - MX2 - La classifica della seconda manche (primi 20)

Pos Nr Rider Nat. Fed. Bike Time laps Diff. First Diff. Prev. Bestlaptime in lap Speed
1 28 Vialle, Tom FRA FFM KTM 35:06.498 19 0:00.000 0:00.000 1:49.712 9 53.157
2 959 Renaux, Maxime FRA FFM Yamaha 35:08.518 19 0:02.020 0:02.020 1:49.395 16 53.311
3 101 Guadagnini, Mattia ITA FMI KTM 35:10.423 19 0:03.925 0:01.905 1:50.404 9 52.824
4 93 Geerts, Jago BEL FMB Yamaha 35:11.579 19 0:05.081 0:01.156 1:50.195 9 52.924
5 711 Hofer, Rene AUT AMF KTM 35:12.496 19 0:05.998 0:00.917 1:49.894 7 53.069
6 14 Beaton, Jed AUS MA Husqvarna 35:13.464 19 0:06.966 0:00.968 1:50.095 13 52.972
7 198 Benistant, Thibault FRA FFM Yamaha 35:26.770 19 0:20.272 0:13.306 1:50.745 5 52.662
8 11 Haarup, Mikkel DEN DMU Kawasaki 35:33.432 19 0:26.934 0:06.662 1:50.929 5 52.574
9 39 Van De Moosdijk, Roan NED KNMV Kawasaki 35:34.683 19 0:28.185 0:01.251 1:50.709 5 52.679
10 70 Fernandez, Ruben ESP RFME Honda 35:35.671 19 0:29.173 0:00.988 1:50.537 13 52.761
11 74 de Wolf, Kay NED KNMV Husqvarna 35:43.132 19 0:36.634 0:07.461 1:50.863 10 52.605
12 80 Adamo, Andrea ITA FMI GASGAS 35:48.150 19 0:41.652 0:05.018 1:51.063 10 52.511
13 118 Rubini, Stephen FRA FFM Honda 35:52.038 19 0:45.540 0:03.888 1:51.508 13 52.301
14 516 Laengenfelder, Simon GER DMSB GASGAS 36:09.447 19 1:02.949 0:17.409 1:51.437 9 52.335
15 20 Todd, Wilson AUS ACU Kawasaki 36:13.308 19 1:06.810 0:03.861 1:51.557 8 52.278
16 87 Brumann, Kevin SUI FMS Yamaha 36:18.435 19 1:11.937 0:05.127 1:52.307 8 51.929
17 313 Polak, Petr CZE ACCR Yamaha 36:23.209 19 1:16.711 0:04.774 1:52.551 8 51.817
18 57 Goupillon, Pierre FRA FFM KTM 36:33.460 19 1:26.962 0:10.251 1:53.575 6 51.349
19 426 Mewse, Conrad GBR ACU KTM 36:36.461 19 1:29.963 0:03.001 1:52.615 12 51.787
20 94 Facchetti, Gianluca ITA FMI KTM 36:59.279 19 1:52.781 0:22.818 1:54.072 4 51.126

GP di Francia - MX2 - La classifica del GP (primi 20)

Pos Nr Rider Nat. Fed. Bike Race 1 Race 2 Total
1 28 Vialle, Tom FRA FFM KTM 25 25 50
2 101 Guadagnini, Mattia ITA FMI KTM 22 20 42
3 959 Renaux, Maxime FRA FFM YAM 18 22 40
4 14 Beaton, Jed AUS MA HUS 20 15 35
5 93 Geerts, Jago BEL FMB YAM 16 18 34
6 711 Hofer, Rene AUT AMF KTM 14 16 30
7 198 Benistant, Thibault FRA FFM YAM 15 14 29
8 39 Van De Moosdijk, Roan NED KNMV KAW 12 12 24
9 11 Haarup, Mikkel DEN DMU KAW 9 13 22
10 118 Rubini, Stephen FRA FFM HON 11 8 19
11 20 Todd, Wilson AUS ACU KAW 13 6 19
12 80 Adamo, Andrea ITA FMI GAS 8 9 17
13 74 de Wolf, Kay NED KNMV HUS 2 10 12
14 70 Fernandez, Ruben ESP RFME HON 0 11 11
15 516 Laengenfelder, Simon GER DMSB GAS 4 7 11
16 517 Gifting, Isak SWE SVEMO GAS 10 0 10
17 57 Goupillon, Pierre FRA FFM KTM 5 3 8
18 94 Facchetti, Gianluca ITA FMI KTM 6 1 7
19 403 Boegh Damm, Bastian DEN DMU KTM 7 0 7
20 87 Brumann, Kevin SUI FMS YAM 0 5 5
  • walter.sciutto11

    Siete rimasti indietro....Febvre è su Kawasaki.
Inserisci il tuo commento